Latest Weather Observations for Melbourne (Olympic Park)

IDV60801

Issued at 9:35 am EDT Tuesday 21 October 2014 (issued every 30 minutes, with the page automatically refreshed every 10 minutes)

About weather observations | Map of weather stations | Latest weather observations for VIC | Other Formats
Station Details ID: 086338 Name: MELBOURNE (OLYMPIC PARK) Lat: -37.83 Lon: 144.98 Height: 7.53 m
Data from the previous 72 hours. | See also: Recent months at Melbourne (Olympic Park)
Date/Time
EDT
Temp
°C
App
Temp
°C
Dew
Point
Rel
Hum
%
Delta-T
°C
Wind Press
QNH
hPa
Press
MSL
hPa
Rain
since 9 am
mm
Dir
 
Spd
km/h
Gust
km/h
Spd
kts
Gust
kts
21/09:30am 14.8 12.7 8.1 64 3.3 NE 9 13 5 7 1027.6 1027.6 0.0
21/09:00am 13.4 11.6 8.0 70 2.7 NE 7 13 4 7 1027.6 1027.6 0.0
21/08:30am 11.2 8.9 7.5 78 1.8 NNE 9 13 5 7 1027.7 1027.7 0.0
21/08:00am 10.2 7.8 7.1 81 1.5 NE 9 11 5 6 1027.3 1027.3 0.0
21/07:30am 8.8 6.3 6.6 86 1.0 NNE 9 11 5 6 1027.1 1027.1 0.0
21/07:00am 8.2 5.6 6.3 88 0.9 NNE 9 11 5 6 1026.9 1026.9 0.0
21/06:30am 8.1 5.6 6.4 89 0.8 NNE 9 13 5 7 1026.8 1026.8 0.0
21/06:00am 8.3 5.4 6.4 88 0.9 NNE 11 15 6 8 1026.4 1026.4 0.0
21/05:30am 8.6 5.7 6.6 87 0.9 NNE 11 13 6 7 1026.2 1026.2 0.0
21/05:00am 9.0 7.5 7.0 87 0.9 NNE 4 9 2 5 1026.3 1026.3 0.0
21/04:30am 9.0 7.0 7.1 88 0.9 NNE 7 11 4 6 1026.3 1026.3 0.0
21/04:00am 8.4 7.8 7.5 94 0.4 CALM 0 6 0 3 1026.3 1026.3 0.0
21/03:30am 8.7 8.1 7.6 93 0.5 CALM 0 0 0 0 1026.2 1026.2 0.0
21/03:00am 9.2 8.6 7.6 90 0.8 CALM 0 6 0 3 1026.4 1026.4 0.0
21/02:30am 10.1 9.1 7.2 82 1.4 ENE 2 6 1 3 1026.5 1026.5 0.0
21/02:00am 9.7 9.2 8.0 89 0.8 CALM 0 0 0 0 1026.7 1026.7 0.0
21/01:30am 10.3 9.8 7.9 85 1.2 CALM 0 0 0 0 1026.9 1026.9 0.0
21/01:00am 11.5 10.4 6.8 73 2.2 ESE 2 6 1 3 1027.1 1027.1 0.0
21/12:30am 11.9 10.4 7.0 72 2.3 E 4 11 2 6 1027.2 1027.2 0.0
21/12:00am 12.2 10.3 6.9 70 2.5 E 6 11 3 6 1027.3 1027.3 0.0
 
Date/Time
EDT
Temp
°C
App
Temp
°C
Dew
Point
Rel
Hum
%
Delta-T
°C
Wind Press
QNH
hPa
Press
MSL
hPa
Rain
since 9 am
mm
Dir
 
Spd
km/h
Gust
km/h
Spd
kts
Gust
kts
20/11:30pm 12.5 10.7 7.0 69 2.6 ESE 6 9 3 5 1027.4 1027.4 0.0
20/11:00pm 12.8 11.3 7.0 68 2.8 ESE 4 9 2 5 1027.4 1027.4 0.0
20/10:30pm 13.2 10.8 7.0 66 3.0 SE 9 17 5 9 1027.3 1027.3 0.0
20/10:00pm 13.5 11.4 6.8 64 3.2 SSE 7 13 4 7 1027.5 1027.5 0.0
20/09:30pm 13.9 11.5 7.0 63 3.4 SSE 9 20 5 11 1027.5 1027.5 0.0
20/09:00pm 14.5 11.4 7.1 61 3.6 SSE 13 30 7 16 1027.4 1027.4 0.0
20/08:30pm 15.1 12.0 7.4 60 3.8 SSE 13 24 7 13 1027.0 1027.0 0.0
20/08:00pm 15.9 11.7 7.4 57 4.2 SSE 19 30 10 16 1026.9 1026.9 0.0
20/07:30pm 16.9 13.8 7.3 53 4.8 SE 13 28 7 15 1026.8 1026.8 0.0
20/07:00pm 18.1 13.6 6.9 48 5.6 S 20 28 11 15 1026.6 1026.6 0.0
20/06:30pm 19.2 14.7 6.3 43 6.4 SE 19 33 10 18 1026.5 1026.5 0.0
20/06:00pm 19.6 15.4 5.6 40 6.8 SSE 17 30 9 16 1026.6 1026.6 0.0
20/05:30pm 19.9 15.3 5.5 39 7.1 SSE 19 30 10 16 1026.6 1026.6 0.0
20/05:00pm 20.0 15.7 5.3 38 7.2 SE 17 33 9 18 1026.7 1026.7 0.0
20/04:30pm 20.1 15.3 4.6 36 7.5 SE 19 26 10 14 1026.8 1026.8 0.0
20/04:00pm 20.1 15.6 4.2 35 7.6 SE 17 37 9 20 1026.9 1026.9 0.0
20/03:30pm 20.0 14.8 3.7 34 7.7 SE 20 37 11 20 1027.2 1027.2 0.0
20/03:00pm 20.0 15.1 4.1 35 7.6 SE 19 32 10 17 1027.4 1027.4 0.0
20/02:30pm 18.8 14.1 3.4 36 7.2 SE 17 30 9 16 1027.7 1027.7 0.0
20/02:00pm 18.7 14.1 3.7 37 7.0 SSE 17 30 9 16 1028.1 1028.1 0.0
20/01:30pm 18.4 14.1 3.5 37 7.0 SSE 15 28 8 15 1028.4 1028.4 0.0
20/01:00pm 17.5 12.4 3.0 38 6.6 SE 19 28 10 15 1028.6 1028.6 0.0
20/12:30pm 17.3 12.5 2.5 37 6.7 SE 17 35 9 19 1029.1 1029.1 0.0
20/12:00pm 16.8 11.7 2.8 39 6.3 SSE 19 30 10 16 1029.4 1029.4 0.0
20/11:30am 16.0 11.9 2.4 40 6.1 SSE 13 26 7 14 1029.9 1029.9 0.0
20/11:00am 15.1 10.7 2.6 43 5.5 SE 15 28 8 15 1030.0 1030.0 0.0
20/10:30am 14.6 9.4 2.5 44 5.4 ESE 19 35 10 19 1030.3 1030.3 0.0
20/10:00am 14.2 9.2 1.2 41 5.5 SE 17 32 9 17 1030.5 1030.5 0.0
20/09:30am 13.4 8.0 1.4 44 5.1 SSE 19 32 10 17 1030.7 1030.7 0.0
20/09:00am 12.8 8.0 2.4 49 4.5 SE 17 30 9 16 1030.5 1030.5 0.0
20/08:30am 12.4 8.2 3.6 55 3.9 SE 15 26 8 14 1030.5 1030.5 0.0
20/08:00am 11.4 7.6 3.9 60 3.3 SE 13 24 7 13 1030.4 1030.4 0.0
20/07:30am 10.7 7.4 4.6 66 2.7 SSE 11 19 6 10 1030.1 1030.1 0.0
20/07:00am 10.3 7.1 5.1 70 2.3 SSE 11 19 6 10 1030.0 1030.0 0.0
20/06:30am 10.4 6.9 5.4 71 2.3 SSE 13 17 7 9 1029.8 1029.8 0.0
20/06:00am 10.7 7.3 6.1 73 2.1 SSE 13 24 7 13 1029.4 1029.4 0.0
20/05:30am 11.0 7.7 6.2 72 2.2 SSE 13 22 7 12 1029.5 1029.5 0.0
20/05:00am 11.2 8.3 6.5 73 2.2 SSE 11 19 6 10 1029.0 1029.0 0.0
20/04:30am 11.6 8.5 7.1 74 2.2 SE 13 28 7 15 1029.0 1029.0 0.0
20/04:00am 12.1 9.1 7.8 75 2.1 SSE 13 28 7 15 1028.9 1028.9 0.0
20/03:30am 12.3 9.6 8.8 79 1.7 SE 13 22 7 12 1028.9 1028.9 0.0
20/03:00am 12.0 9.8 9.2 83 1.4 SSE 11 17 6 9 1029.0 1029.0 0.0
20/02:30am 12.1 8.2 8.8 80 1.6 SSE 19 32 10 17 1029.2 1029.2 0.0
20/02:00am 12.8 9.5 8.1 73 2.3 SSE 15 20 8 11 1028.9 1028.9 0.0
20/01:30am 12.8 9.2 8.3 74 2.2 SSE 17 26 9 14 1029.1 1029.1 0.0
20/01:00am 12.9 9.4 8.6 75 2.1 SSE 17 28 9 15 1029.1 1029.1 0.0
20/12:30am 12.8 9.3 8.9 77 2.0 SSE 17 32 9 17 1029.1 1029.1 0.0
20/12:00am 13.0 9.3 9.6 80 1.7 SSE 19 30 10 16 1028.9 1028.9 0.0
 
Date/Time
EDT
Temp
°C
App
Temp
°C
Dew
Point
Rel
Hum
%
Delta-T
°C
Wind Press
QNH
hPa
Press
MSL
hPa
Rain
since 9 am
mm
Dir
 
Spd
km/h
Gust
km/h
Spd
kts
Gust
kts
19/11:30pm 13.5 10.7 10.1 80 1.8 SSE 15 28 8 15 1028.7 1028.7 0.0
19/11:00pm 14.3 11.8 10.9 80 1.8 S 15 30 8 16 1028.4 1028.4 0.0
19/10:30pm 14.5 12.8 11.3 81 1.7 S 11 20 6 11 1028.0 1028.0 0.0
19/10:00pm 14.7 12.8 11.7 82 1.6 S 13 24 7 13 1027.9 1027.9 0.0
19/09:30pm 14.8 12.5 11.6 81 1.7 S 15 28 8 15 1027.8 1027.8 0.0
19/09:00pm 15.0 13.4 11.4 79 1.9 S 11 22 6 12 1026.9 1026.9 0.0
19/08:30pm 15.0 13.9 11.8 81 1.7 S 9 19 5 10 1026.2 1026.2 0.0
19/08:00pm 15.0 12.7 11.8 81 1.7 S 15 26 8 14 1025.5 1025.5 0.0
19/07:30pm 15.1 13.4 12.4 84 1.5 SSW 13 20 7 11 1025.0 1025.0 0.0
19/07:00pm 15.2 12.6 12.0 81 1.7 SSW 17 28 9 15 1024.5 1024.5 0.0
19/06:30pm 15.3 13.1 12.1 81 1.7 SSW 15 30 8 16 1023.7 1023.7 0.0
19/06:00pm 15.6 12.6 12.0 79 1.9 SSW 19 39 10 21 1023.0 1023.0 0.0
19/05:30pm 15.5 13.0 12.3 81 1.7 S 17 33 9 18 1022.1 1022.1 0.0
19/05:00pm 15.6 13.3 12.9 84 1.5 SSW 17 30 9 16 1021.2 1021.2 0.0
19/04:30pm 16.0 13.7 13.1 83 1.6 SSW 17 33 9 18 1020.2 1020.2 0.0
19/04:00pm 17.8 15.5 13.1 74 2.6 SSW 17 30 9 16 1019.7 1019.7 0.0
19/03:36pm 21.7 17.4 9.3 45 6.6 SW 22 39 12 21 1019.3 1019.3 0.0
19/03:30pm 28.9 25.6 8.0 27 11.4 NW 15 19 8 10 1018.6 1018.6 0.0
19/03:00pm 27.8 23.6 8.1 29 10.6 N 20 37 11 20 1018.7 1018.7 0.0
19/02:30pm 26.3 21.5 7.4 30 10.0 N 22 35 12 19 1019.0 1019.0 0.0
19/02:00pm 25.9 20.4 7.5 31 9.7 N 26 39 14 21 1019.5 1019.5 0.0
19/01:30pm 25.9 20.3 7.0 30 9.9 N 26 39 14 21 1019.7 1019.7 0.0
19/01:12pm 25.6 19.3 5.8 28 10.2 N 28 46 15 25 1019.6 1019.6 0.0
19/01:00pm 26.2 20.3 5.7 27 10.5 N 26 43 14 23 1019.8 1019.8 0.0
19/12:30pm 26.1 20.4 5.1 26 10.7 N 24 43 13 23 1020.0 1020.0 0.0
19/12:00pm 25.3 18.6 3.9 25 10.6 N 28 44 15 24 1020.1 1020.1 0.0
19/11:32am 25.1 18.5 4.3 26 10.4 N 28 50 15 27 1020.2 1020.2 0.0
19/11:30am 25.2 19.5 4.9 27 10.2 N 24 50 13 27 1020.1 1020.1 0.0
19/11:12am 24.3 17.8 4.6 28 9.8 N 28 50 15 27 1020.5 1020.5 0.0
19/11:00am 23.9 17.8 4.8 29 9.5 N 26 44 14 24 1020.5 1020.5 0.0
19/10:30am 23.9 17.8 4.8 29 9.5 N 26 50 14 27 1020.9 1020.9 0.0
19/10:04am 22.7 16.2 4.7 31 8.9 N 28 46 15 25 1021.1 1021.1 0.0
19/10:00am 22.7 16.2 4.7 31 8.9 N 28 43 15 23 1021.0 1021.0 0.0
19/09:30am 22.4 15.2 4.9 32 8.7 N 32 57 17 31 1021.4 1021.4 0.0
19/09:28am 22.2 15.7 4.7 32 8.6 N 28 57 15 31 1021.4 1021.4 0.0
19/09:00am 21.8 16.6 5.7 35 8.0 N 22 37 12 20 1021.6 1021.6 0.0
19/08:30am 21.5 15.4 5.0 34 8.1 N 26 46 14 25 1021.4 1021.4 0.0
19/08:00am 20.6 16.0 5.4 37 7.5 N 19 26 10 14 1021.3 1021.3 0.0
19/07:30am 19.6 14.4 5.3 39 7.0 N 22 39 12 21 1020.9 1020.9 0.0
19/07:00am 19.2 14.0 5.6 41 6.6 N 22 35 12 19 1020.5 1020.5 0.0
19/06:30am 19.3 13.8 5.7 41 6.7 N 24 35 13 19 1020.3 1020.3 0.0
19/06:00am 19.6 14.0 5.6 40 6.9 N 24 35 13 19 1020.1 1020.1 0.0
19/05:30am 19.4 14.8 5.5 40 6.8 N 19 30 10 16 1020.2 1020.2 0.0
19/05:00am 19.7 15.1 5.4 39 7.0 N 19 30 10 16 1020.1 1020.1 0.0
19/04:30am 20.0 16.1 5.3 38 7.2 N 15 22 8 12 1020.2 1020.2 0.0
19/04:00am 19.3 15.5 5.7 41 6.7 NNE 15 22 8 12 1020.4 1020.4 0.0
19/03:30am 19.4 15.5 5.5 40 6.8 N 15 22 8 12 1020.5 1020.5 0.0
19/03:00am 19.2 15.3 5.3 40 6.8 NNE 15 20 8 11 1020.6 1020.6 0.0
19/02:30am 19.1 14.5 5.6 41 6.6 N 19 26 10 14 1020.8 1020.8 0.0
19/02:00am 19.5 14.9 5.6 40 6.8 N 19 30 10 16 1021.0 1021.0 0.0
19/01:30am 18.0 15.5 6.5 47 5.7 N 9 15 5 8 1021.2 1021.2 0.0
19/01:00am 17.6 15.1 6.5 48 5.5 N 9 15 5 8 1021.3 1021.3 0.0
19/12:30am 17.7 14.8 6.6 48 5.5 N 11 17 6 9 1021.4 1021.4 0.0
19/12:00am 17.7 15.2 6.6 48 5.5 N 9 17 5 9 1021.6 1021.6 0.0
 
Date/Time
EDT
Temp
°C
App
Temp
°C
Dew
Point
Rel
Hum
%
Delta-T
°C
Wind Press
QNH
hPa
Press
MSL
hPa
Rain
since 9 am
mm
Dir
 
Spd
km/h
Gust
km/h
Spd
kts
Gust
kts
18/11:30pm 18.2 15.2 6.1 45 6.0 N 11 17 6 9 1021.9 1021.9 0.0
18/11:00pm 18.7 15.7 6.2 44 6.2 N 11 17 6 9 1022.1 1022.1 0.0
18/10:30pm 19.2 15.8 6.0 42 6.5 NNE 13 17 7 9 1022.4 1022.4 0.0
18/10:00pm 19.9 17.2 5.5 39 7.1 N 9 13 5 7 1022.8 1022.8 0.0
18/09:30pm 20.7 17.5 5.1 36 7.7 N 11 17 6 9 1022.9 1022.9 0.0
18/09:00pm 21.2 18.1 5.5 36 7.8 N 11 15 6 8 1022.8 1022.8 0.0
18/08:30pm 22.0 18.5 5.4 34 8.3 N 13 22 7 12 1022.6 1022.6 0.0
18/08:00pm 22.3 18.9 6.1 35 8.2 N 13 20 7 11 1022.7 1022.7 0.0
18/07:30pm 22.8 19.4 5.7 33 8.6 N 13 19 7 10 1022.6 1022.6 0.0
18/07:00pm 23.2 19.4 5.6 32 8.8 N 15 24 8 13 1022.4 1022.4 0.0
18/06:30pm 23.7 19.1 5.6 31 9.2 N 19 30 10 16 1022.0 1022.0 0.0
18/06:00pm 23.9 19.0 5.3 30 9.3 N 20 28 11 15 1021.8 1021.8 0.0
18/05:30pm 23.7 18.8 5.1 30 9.3 N 20 39 11 21 1021.6 1021.6 0.0
18/05:00pm 23.9 18.2 4.8 29 9.5 N 24 35 13 19 1021.4 1021.4 0.0
18/04:30pm 23.9 17.5 5.3 30 9.4 N 28 46 15 25 1021.6 1021.6 0.0
18/04:28pm 23.7 17.3 5.1 30 9.3 N 28 46 15 25 1021.5 1021.5 0.0
18/04:00pm 23.4 18.2 5.3 31 9.1 N 22 35 12 19 1021.5 1021.5 0.0
18/03:30pm 22.7 17.3 4.7 31 8.9 N 22 33 12 18 1022.5 1022.5 0.0
18/03:00pm 22.8 18.4 4.8 31 8.9 N 17 28 9 15 1022.9 1022.9 0.0
18/02:30pm 23.3 18.2 6.1 33 8.8 N 22 33 12 18 1023.5 1023.5 0.0
18/02:00pm 22.1 16.4 5.1 33 8.4 N 24 35 13 19 1023.5 1023.5 0.0
18/01:30pm 21.5 16.3 5.4 35 8.0 N 22 32 12 17 1024.0 1024.0 0.0
18/01:00pm 20.3 15.6 5.9 39 7.1 N 20 35 11 19 1024.8 1024.8 0.0
18/12:30pm 19.5 14.7 5.6 40 6.8 N 20 32 11 17 1025.3 1025.3 0.0
18/12:00pm 20.3 15.8 6.3 40 7.0 N 19 33 10 18 1025.6 1025.6 0.0
18/11:30am 19.8 14.5 5.1 38 7.2 N 22 39 12 21 1025.6 1025.6 0.0
18/11:00am 19.9 14.4 5.9 40 6.9 N 24 37 13 20 1026.0 1026.0 0.0
18/10:30am 19.3 14.0 5.0 39 6.9 N 22 33 12 18 1026.2 1026.2 0.0
18/10:00am 19.2 14.5 5.3 40 6.7 N 19 32 10 17 1026.2 1026.2 0.0

Other Formats:

Comma delimited format used in spreadsheet applications
http://www.bom.gov.au/fwo/IDV60801/IDV60801.95936.axf

JavaScript Object Notation format (JSON) in row-major order
http://www.bom.gov.au/fwo/IDV60801/IDV60801.95936.json